Waterford, Connecticut
Current Conditions -  °F | °C
As of 8:56 PM on Saturday 25 Oct 2014 (Local Time) from KGON Reporting Station
Broken Clouds Broken Clouds  
Wind Chill: 59°   Ceiling: 9500
Heat Index: 59°   Visibility: 10mi
Dew Point: 52°   Wind: 9mph
Humidity: 78%   Direction: 230°SW
Pressure: 29.6"   Gusts: NA
Location:  41.33°N, 72.12°W
Report Text: KGON 260056Z 23008KT 10SM BKN095 15/11 A2960 RMK AO2 SLP022 T01500111
Loading
Personal Weather Stations






























Interactive Weather Map New forecast layout! Learn more

10-Day Weather Forecast

Advertisements
Track Severe Weather on mobile